Stations météo

réclame
Mon MeteoGroup
Wilhelminadorp aws, Pays-Bas (6323): Température de l'air & dewpoint: 17.02.2020 12:00:00 - 23.02.2020 12:00:00 (CET)Wilhelminadorp aws, Pays-Bas (6323): Température de l'air 5cm & Température de l'air -5cm: 17.02.2020 12:00:00 - 23.02.2020 12:00:00 (CET)Wilhelminadorp aws, Pays-Bas (6323): Température de l'air -20cm & Température de l'air -100cm: 17.02.2020 12:00:00 - 23.02.2020 12:00:00 (CET)Wilhelminadorp aws, Pays-Bas (6323): Vitesse du vent & gusts: 17.02.2020 12:00:00 - 23.02.2020 12:00:00 (CET)Wilhelminadorp aws, Pays-Bas (6323): Direction du vent: 17.02.2020 12:00:00 - 23.02.2020 12:00:00 (CET)Wilhelminadorp aws, Pays-Bas (6323): reduced air pressure: 17.02.2020 12:00:00 - 23.02.2020 12:00:00 (CET)Wilhelminadorp aws, Pays-Bas (6323): Quantités de précipitations: 17.02.2020 12:00:00 - 23.02.2020 12:00:00 (CET)
Date & Time tt [°C] td [°C] tt 5cm [°C] tt -5cm [°C] tt -20cm [°C] tt -100cm [°C] ff [km/h] ff [knt] fx [km/h] fx [knt] dd ppp [hPa] rr [mm]
23.02.2020 12:00:00 12,1 9,7 11,7 8,5 8,0 7,9 72 39 101 54 WSW 1010,7 0,0
23.02.2020 11:00:00 12,1 9,6 11,8 8,3 7,9 7,9 68 37 108 58 WSW 1010,4 0,0
23.02.2020 10:00:00 12,3 9,7 11,7 8,2 7,8 7,9 76 41 112 60 WSW 1010,3 0,0
23.02.2020 09:00:00 12,5 10,2 11,9 8,0 7,8 7,9 58 31 83 45 WSW 1010,4 0,0
23.02.2020 08:00:00 11,4 10,4 10,6 7,9 7,7 7,9 47 25 72 39 SW 1010,7 0,5
23.02.2020 07:00:00 9,7 9,3 9,2 7,8 7,7 7,9 32 18 58 31 SW 1012,7 3,3
23.02.2020 06:00:00 8,7 8,1 8,6 7,8 7,7 7,9 18 10 32 18 SSW 1014,2 2,3
23.02.2020 05:00:00 9,2 8,1 8,8 7,8 7,7 7,9 25 14 43 23 SW 1017,6 1,3
23.02.2020 04:00:00 9,2 7,8 8,7 7,8 7,7 7,9 29 16 47 25 SW 1018,5 0,9
23.02.2020 03:00:00 9,4 7,4 8,9 7,8 7,7 7,9 32 18 47 25 WSW 1019,7 0,4
23.02.2020 02:00:00 9,5 7,5 8,9 7,8 7,7 7,9 36 19 54 29 WSW 1020,7 0,2
23.02.2020 01:00:00 9,7 7,4 9,3 7,8 7,7 7,9 40 21 58 31 WSW 1021,4 0,0
23.02.2020 00:00:00 9,9 6,9 9,4 7,9 7,7 7,9 36 19 58 31 WSW 1021,2 0,0
22.02.2020 23:00:00 10,0 7,4 9,5 7,9 7,6 7,9 43 23 65 35 WSW 1021,1 0,0
22.02.2020 22:00:00 10,2 7,9 9,7 7,9 7,6 7,9 36 19 54 29 WSW 1020,8 0,0
22.02.2020 21:00:00 10,0 8,2 9,6 7,9 7,6 7,9 32 18 54 29 WSW 1020,9 0,0
22.02.2020 20:00:00 10,1 8,4 9,6 7,9 7,5 7,9 40 21 61 33 WSW 1021,0 0,5
22.02.2020 19:00:00 10,6 8,4 10,0 7,9 7,4 7,9 47 25 68 37 WSW 1020,5 0,0
22.02.2020 18:00:00 10,9 8,7 10,6 7,8 7,3 7,9 40 21 61 33 WSW 1019,8 0,0
22.02.2020 17:00:00 11,2 9,1 10,8 7,7 7,2 7,9 40 21 65 35 WSW 1019,2 0,0
22.02.2020 16:00:00 11,3 9,2 11,2 7,5 7,1 7,9 40 21 61 33 WSW 1018,8 0,0
22.02.2020 15:00:00 11,0 9,1 10,9 7,3 7,0 7,9 43 23 58 31 WSW 1018,6 0,0
22.02.2020 14:00:00 10,4 8,8 10,3 7,0 6,9 7,9 43 23 65 35 SW 1018,6 0,0
22.02.2020 13:00:00 9,8 8,3 9,5 6,8 6,8 7,9 47 25 65 35 WSW 1018,8 0,0
22.02.2020 12:00:00 9,5 6,8 9,2 6,6 6,8 7,9 40 21 58 31 WSW 1018,3 0,0
22.02.2020 11:00:00 8,9 5,7 8,6 6,5 6,8 7,9 40 21 58 31 SW 1017,7 0,0
22.02.2020 10:00:00 8,0 4,0 7,6 6,5 6,8 7,9 36 19 58 31 SW 1017,6 0,0
22.02.2020 09:00:00 7,5 3,0 7,1 6,5 6,9 7,9 43 23 65 35 SW 1017,8 0,0
22.02.2020 08:00:00 7,6 2,6 7,0 6,5 6,9 7,9 40 21 61 33 SW 1017,6 0,0
22.02.2020 07:00:00 6,9 2,8 6,4 6,6 7,0 7,9 25 14 54 29 SW 1017,6 0,0
22.02.2020 06:00:00 6,7 3,5 6,3 6,6 7,0 7,9 32 18 50 27 SSW 1017,8 0,0
22.02.2020 05:00:00 6,8 3,9 6,3 6,7 7,0 7,9 29 16 50 27 SSW 1018,5 0,0
22.02.2020 04:00:00 7,2 4,2 6,9 6,8 7,0 7,9 32 18 50 27 SW 1018,8 0,0
22.02.2020 03:00:00 7,3 4,3 6,8 6,8 7,0 7,9 29 16 43 23 SSW 1019,1 0,0
22.02.2020 02:00:00 7,6 4,3 7,2 6,9 7,1 7,9 25 14 43 23 SSW 1020,0 0,0
22.02.2020 01:00:00 7,9 4,3 7,5 6,9 7,1 7,9 29 16 50 27 SW 1021,2 0,0
22.02.2020 00:00:00 8,5 4,3 8,1 6,9 7,1 7,9 32 18 54 29 SW 1021,1 0,0
21.02.2020 23:00:00 8,7 4,3 8,2 7,0 7,1 7,9 29 16 50 27 SW 1021,8 0,0
21.02.2020 22:00:00 8,7 4,5 8,3 7,0 7,1 7,9 29 16 50 27 SW 1022,3 0,0
21.02.2020 21:00:00 8,7 4,4 8,2 7,0 7,1 7,9 32 18 54 29 SW 1022,9 0,0
21.02.2020 20:00:00 8,8 4,2 8,3 7,1 7,1 7,9 32 18 47 25 SW 1023,5 0,0
21.02.2020 19:00:00 8,8 4,3 8,3 7,1 7,0 7,9 32 18 50 27 SW 1023,7 0,0
21.02.2020 18:00:00 8,9 4,5 8,4 7,1 7,0 7,9 25 14 43 23 SW 1023,8 0,0
21.02.2020 17:00:00 9,1 4,7 8,7 7,1 6,9 7,9 29 16 47 25 SW 1023,6 0,0
21.02.2020 16:00:00 9,0 5,0 8,7 7,1 6,8 7,9 29 16 50 27 SW 1024,2 0,0
21.02.2020 15:00:00 9,0 5,4 8,9 6,9 6,6 7,9 29 16 43 23 SW 1024,2 0,0
21.02.2020 14:00:00 8,8 5,2 8,9 6,6 6,5 7,9 29 16 50 27 SW 1024,8 0,0
21.02.2020 13:00:00 8,7 4,6 8,7 6,3 6,4 7,9 36 19 54 29 SW 1025,4 0,0
21.02.2020 12:00:00 8,0 4,4 8,1 6,0 6,4 7,9 32 18 50 27 SW 1025,6 0,0
21.02.2020 11:00:00 7,6 4,4 7,8 5,8 6,4 7,9 25 14 36 19 SW 1025,4 0,0
21.02.2020 10:00:00 5,9 3,3 5,9 5,6 6,4 7,9 22 12 32 18 SW 1025,1 0,0
21.02.2020 09:00:00 4,8 2,3 4,2 5,6 6,5 7,9 18 10 29 16 SW 1025,1 0,0
21.02.2020 08:00:00 4,6 2,1 3,7 5,7 6,6 7,9 14 8 22 12 SSW 1024,4 0,0
21.02.2020 07:00:00 4,8 2,2 4,2 5,8 6,7 7,9 14 8 29 16 SW 1023,9 0,0
21.02.2020 06:00:00 5,2 1,9 3,9 5,9 6,8 7,9 18 10 29 16 WSW 1023,5 0,0
21.02.2020 05:00:00 5,3 1,6 4,4 6,0 6,9 7,9 22 12 40 21 W 1023,1 0,0
21.02.2020 04:00:00 5,2 1,4 4,5 6,1 7,0 7,9 22 12 40 21 W 1022,5 0,0
21.02.2020 03:00:00 5,5 1,5 4,7 6,2 7,1 7,9 29 16 43 23 W 1021,7 0,0
21.02.2020 02:00:00 5,4 0,7 4,4 6,4 7,2 7,9 25 14 40 21 W 1021,0 0,0
21.02.2020 01:00:00 5,7 0,3 4,8 6,6 7,3 7,9 32 18 50 27 W 1019,9 0,0
21.02.2020 00:00:00 5,8 0,4 4,9 6,8 7,5 7,9 32 18 50 27 W 1019,0 0,0
20.02.2020 23:00:00 6,4 1,1 5,5 7,1 7,6 7,9 32 18 54 29 WNW 1017,7 0,0
20.02.2020 22:00:00 6,1 1,6 5,3 7,3 7,6 7,9 40 21 65 35 WNW 1016,1 0,0
20.02.2020 21:00:00 5,5 0,8 4,7 7,6 7,7 7,9 47 25 86 47 WNW 1014,0 0,6
20.02.2020 20:00:00 6,6 4,2 5,8 7,7 7,7 7,9 29 16 65 35 WNW 1012,5 1,1
20.02.2020 19:00:00 6,6 4,9 6,2 7,9 7,7 7,9 47 25 76 41 WNW 1010,8 4,6
20.02.2020 18:00:00 9,1 8,3 8,8 8,0 7,7 7,9 29 16 50 27 SW 1007,6 3,0
20.02.2020 17:00:00 9,2 7,8 9,0 8,0 7,6 7,9 29 16 58 31 SSW 1007,7 0,2
20.02.2020 16:00:00 10,7 6,4 10,4 8,0 7,5 7,9 32 18 54 29 SSW 1008,4 0,0
20.02.2020 15:00:00 10,9 6,0 10,6 7,9 7,4 7,9 32 18 54 29 SSW 1009,2 0,0
20.02.2020 14:00:00 10,1 6,1 9,8 7,8 7,3 7,9 32 18 50 27 SSW 1010,2 0,0
20.02.2020 13:00:00 10,2 6,8 10,3 7,5 7,2 7,9 29 16 47 25 SSW 1011,2 0,0
20.02.2020 12:00:00 9,3 6,5 9,3 7,3 7,2 7,9 32 18 47 25 SSW 1012,6 0,0
20.02.2020 11:00:00 8,9 6,4 8,8 7,1 7,1 7,9 29 16 47 25 SSW 1013,3 0,0
20.02.2020 10:00:00 8,6 5,9 8,4 7,0 7,1 7,9 29 16 47 25 SSW 1013,7 0,0
20.02.2020 09:00:00 8,7 5,6 8,3 7,0 7,1 7,9 25 14 43 23 SSW 1013,9 0,0
20.02.2020 08:00:00 8,5 6,1 8,0 6,9 7,1 7,9 22 12 40 21 SSW 1014,1 0,0
20.02.2020 07:00:00 8,5 6,3 8,0 6,9 7,0 7,9 25 14 40 21 SSW 1014,3 0,0
20.02.2020 06:00:00 8,5 6,4 8,0 6,9 7,0 7,9 22 12 40 21 SSW 1014,6 0,0
20.02.2020 05:00:00 8,1 6,7 7,9 6,8 7,0 7,9 22 12 40 21 SW 1014,8 0,0
20.02.2020 04:00:00 8,2 6,4 7,8 6,8 7,0 7,9 22 12 40 21 SSW 1015,2 0,0
20.02.2020 03:00:00 8,1 6,3 7,6 6,8 7,0 7,9 25 14 40 21 SSW 1015,8 0,0
20.02.2020 02:00:00 8,1 6,6 7,5 6,7 7,0 7,9 25 14 43 23 SSW 1016,2 0,0
20.02.2020 01:00:00 7,7 6,9 7,1 6,7 7,0 7,9 22 12 36 19 SSW 1016,8 0,1
20.02.2020 00:00:00 7,3 6,2 6,9 6,7 7,0 7,9 22 12 40 21 SSW 1017,5 0,1
19.02.2020 23:00:00 6,9 5,8 6,5 6,7 7,0 7,9 25 14 43 23 SSW 1018,1 0,1
19.02.2020 22:00:00 6,6 5,2 6,3 6,7 7,1 7,9 25 14 40 21 SSW 1018,5 0,0
19.02.2020 21:00:00 6,2 4,8 5,9 6,8 7,1 7,9 22 12 36 19 SSW 1019,2 0,1
19.02.2020 20:00:00 6,2 4,4 5,8 6,9 7,1 7,9 18 10 32 18 SSW 1020,0 0,0
19.02.2020 19:00:00 6,7 3,7 6,3 7,0 7,1 7,9 22 12 40 21 SW 1020,4 0,0
19.02.2020 18:00:00 7,2 3,3 6,7 7,1 7,1 7,9 22 12 36 19 SW 1020,5 0,0
19.02.2020 17:00:00 7,2 2,4 6,8 7,1 7,0 7,9 22 12 36 19 SW 1020,9 0,0
19.02.2020 16:00:00 7,3 2,4 7,2 7,0 6,9 7,9 29 16 43 23 WSW 1021,3 0,0
19.02.2020 15:00:00 7,5 3,3 7,7 6,9 6,9 7,9 29 16 47 25 W 1021,5 0,0
19.02.2020 14:00:00 7,1 2,6 7,6 6,7 6,8 7,9 36 19 47 25 W 1021,6 0,0
19.02.2020 13:00:00 7,2 2,9 7,3 6,5 6,7 7,9 29 16 47 25 W 1021,4 0,0
19.02.2020 12:00:00 7,4 2,4 7,5 6,3 6,7 7,9 32 18 50 27 W 1020,9 0,0
19.02.2020 11:00:00 6,9 2,1 7,3 6,1 6,7 7,9 36 19 54 29 W 1020,5 0,0
19.02.2020 10:00:00 6,4 2,3 6,2 6,1 6,8 7,9 29 16 40 21 W 1020,0 0,0
19.02.2020 09:00:00 5,4 1,6 4,9 6,2 6,9 7,9 25 14 40 21 W 1019,3 0,0
19.02.2020 08:00:00 5,5 1,5 5,0 6,3 7,0 7,9 29 16 47 25 W 1018,5 0,0
19.02.2020 07:00:00 5,6 1,3 5,0 6,4 7,0 7,9 32 18 50 27 WNW 1017,7 0,0
19.02.2020 06:00:00 5,5 1,5 4,8 6,5 7,1 7,9 29 16 47 25 WNW 1016,9 0,0
19.02.2020 05:00:00 5,9 1,7 5,0 6,7 7,2 7,9 36 19 54 29 WNW 1015,6 0,0
19.02.2020 04:00:00 5,9 2,4 5,3 6,8 7,2 7,9 36 19 50 27 WNW 1014,9 0,0
19.02.2020 03:00:00 6,4 3,6 5,9 6,9 7,2 7,9 32 18 58 31 WNW 1014,0 0,0
19.02.2020 02:00:00 7,2 4,6 6,6 6,9 7,3 7,9 29 16 50 27 W 1013,3 0,1
19.02.2020 01:00:00 6,7 5,0 6,2 7,0 7,3 7,9 36 19 54 29 W 1012,8 2,4
19.02.2020 00:00:00 6,2 4,4 5,8 7,1 7,4 7,9 32 18 61 33 SW 1013,3 6,1
18.02.2020 23:00:00 6,7 4,9 6,4 7,1 7,4 7,9 43 23 61 33 SW 1014,2 3,3
18.02.2020 22:00:00 7,8 4,8 7,4 7,2 7,4 7,9 32 18 54 29 SSW 1015,1 0,0
18.02.2020 21:00:00 8,0 4,5 7,4 7,3 7,4 7,9 40 21 58 31 SW 1016,2 0,1
18.02.2020 20:00:00 8,4 4,7 8,1 7,3 7,4 7,9 32 18 50 27 SW 1017,2 0,0
18.02.2020 19:00:00 8,3 4,5 7,9 7,4 7,5 7,9 25 14 47 25 SW 1017,8 0,0
18.02.2020 18:00:00 8,6 4,3 8,0 7,5 7,4 7,9 32 18 50 27 SW 1018,4 0,0
18.02.2020 17:00:00 9,0 3,7 8,5 7,5 7,4 7,9 32 18 54 29 SW 1019,1 0,0
18.02.2020 16:00:00 9,2 3,6 8,7 7,5 7,3 7,9 36 19 58 31 WSW 1019,7 0,0
18.02.2020 15:00:00 9,9 5,3 10,2 7,3 7,2 7,9 36 19 61 33 WSW 1020,1 0,0
18.02.2020 14:00:00 9,2 3,8 9,4 7,1 7,1 7,9 43 23 61 33 WSW 1020,4 0,0
18.02.2020 13:00:00 8,8 5,0 8,5 6,9 7,0 7,9 32 18 50 27 WSW 1020,9 0,0
18.02.2020 12:00:00 7,9 4,6 7,8 6,7 7,0 7,9 32 18 54 29 SW 1021,2 0,0
18.02.2020 11:00:00 7,9 4,6 - - - - 29 16 43 23 SW 1021,4 0,0
18.02.2020 10:00:00 6,7 4,0 6,6 6,4 7,1 7,9 25 14 43 23 SW 1021,2 0,0
18.02.2020 09:00:00 5,7 3,1 5,2 6,4 7,1 7,9 22 12 32 18 SW 1021,0 0,0
18.02.2020 08:00:00 5,1 2,6 4,6 6,5 7,2 7,9 22 12 32 18 SW 1020,7 0,0
18.02.2020 07:00:00 5,8 3,0 - - - - 22 12 32 18 SW 1020,1 0,0
18.02.2020 06:00:00 6,4 3,1 - - - - 29 16 40 21 WSW 1019,8 0,0
18.02.2020 05:00:00 6,4 2,9 5,6 6,8 7,4 7,9 29 16 40 21 WSW 1019,5 0,0
18.02.2020 04:00:00 6,3 2,8 - - - - 29 16 47 25 W 1019,2 0,0
18.02.2020 03:00:00 6,6 3,1 5,9 7,1 7,5 7,9 29 16 47 25 W 1018,9 0,0
18.02.2020 02:00:00 7,7 4,3 6,9 7,2 7,6 7,9 32 18 50 27 W 1018,0 0,0
18.02.2020 01:00:00 7,8 5,1 7,3 7,2 7,6 7,9 29 16 47 25 WSW 1017,1 0,0
18.02.2020 00:00:00 7,8 5,2 7,2 7,2 7,6 7,9 29 16 43 23 WSW 1016,3 0,0
17.02.2020 23:00:00 8,0 5,4 7,3 7,3 7,7 7,9 32 18 54 29 WSW 1015,4 0,0
17.02.2020 22:00:00 8,2 5,5 7,6 7,4 7,7 7,9 36 19 54 29 WSW 1014,8 0,0
17.02.2020 21:00:00 8,2 5,5 7,4 7,5 7,8 7,9 36 19 54 29 WSW 1014,1 0,0
17.02.2020 20:00:00 8,0 5,7 7,3 7,6 7,8 7,8 32 18 43 23 SW 1013,5 0,2
17.02.2020 19:00:00 8,3 5,7 7,9 7,6 7,8 7,8 32 18 50 27 SW 1012,5 0,0
17.02.2020 18:00:00 8,1 5,4 7,7 7,7 7,8 7,8 29 16 43 23 SW 1012,0 0,0
17.02.2020 17:00:00 7,3 4,5 7,0 7,8 7,8 7,8 29 16 61 33 SW 1011,6 0,0
17.02.2020 16:00:00 7,9 4,1 7,5 7,8 7,7 7,8 36 19 65 35 SW 1011,4 0,2
17.02.2020 15:00:00 9,3 4,9 9,0 7,6 7,7 7,8 32 18 54 29 SW 1010,8 0,0
17.02.2020 14:00:00 8,1 4,6 8,2 7,5 7,7 7,8 32 18 61 33 SW 1011,2 0,2
17.02.2020 13:00:00 7,1 2,9 6,6 7,5 7,7 7,8 54 29 83 45 WSW 1011,8 0,7
17.02.2020 12:00:00 9,5 4,8 9,3 7,3 7,7 7,8 36 19 50 27 SW 1010,9 0,0

tt = Température de l'air
td = dewpoint
tt 5cm = Température de l'air 5cm
tt -5cm = Température de l'air -5cm
tt -20cm = Température de l'air -20cm
tt -100cm = Température de l'air -100cm
ff = Vitesse du vent
fx = gusts
dd = Direction du vent
ppp = reduced air pressure
rr = Quantités de précipitations

stations d'obs. à proximité